This is the latest recevied weather packets stored in our database for station/object Huerbel. If no packets are shown the sender has not sent any weather packets the latest 10 day(s).
| Time | Temp. | Humidity | Pressure | Rain* | Wind** | Luminosity | Snow |
|---|---|---|---|---|---|---|---|
| 1777357931 | 5.56° C | 84% | 1018.8 hPa | 0 mm | - | - | - |
| 1777356133 | 3.89° C | 84% | 1018.6 hPa | 0 mm | - | - | - |
| 1777354331 | 2.78° C | 83% | 1018.6 hPa | 0 mm | - | - | - |
| 1777352531 | 2.78° C | 81% | 1018.3 hPa | 0 mm | - | - | - |
| 1777350732 | 2.78° C | 81% | 1018.4 hPa | 0 mm | - | - | - |
| 1777348932 | 3.33° C | 80% | 1018.2 hPa | 0 mm | - | - | - |
| 1777347133 | 3.33° C | 80% | 1018.4 hPa | 0 mm | - | - | - |
| 1777345331 | 3.33° C | 80% | 1018.5 hPa | 0 mm | - | - | - |
| 1777343532 | 3.33° C | 78% | 1018.5 hPa | 0 mm | - | - | - |
| 1777341732 | 3.89° C | 78% | 1018.6 hPa | 0 mm | - | - | - |
| 1777339933 | 4.44° C | 77% | 1018.9 hPa | 0 mm | - | - | - |
| 1777338131 | 4.44° C | 78% | 1019 hPa | 0 mm | - | - | - |
| 1777336329 | 5° C | 78% | 1019 hPa | 0 mm | - | - | - |
| 1777334529 | 5° C | 77% | 1019.3 hPa | 0 mm | - | - | - |
| 1777332730 | 5° C | 76% | 1019.2 hPa | 0 mm | - | - | - |
| 1777330929 | 5.56° C | 74% | 1019.3 hPa | 0 mm | - | - | - |
| 1777329129 | 6.67° C | 71% | 1019.6 hPa | 0 mm | - | - | - |
| 1777327329 | 7.22° C | 70% | 1019.7 hPa | 0 mm | - | - | - |
| 1777325530 | 7.78° C | 68% | 1019.6 hPa | 0 mm | - | - | - |
| 1777323730 | 7.78° C | 70% | 1019.7 hPa | 0 mm | - | - | - |
| 1777321930 | 7.78° C | 70% | 1019.8 hPa | 0 mm | - | - | - |
| 1777320129 | 9.44° C | 67% | 1019.8 hPa | 0 mm | - | - | - |
| 1777318340 | 10° C | 63% | 1019.9 hPa | 0 mm | - | - | - |
| 1777316531 | 11.67° C | 57% | 1019.8 hPa | 0 mm | - | - | - |
| 1777314729 | 13.89° C | 45% | 1019.8 hPa | 0 mm | - | - | - |
* Rain since midnight (hover to see other rain measurements)
** Current wind speed in m/s (hover to see current wind gust speed)